sensor_id;sensor_type;location;lat;lon;timestamp;P1;durP1;ratioP1;P2;durP2;ratioP2
24206;SDS011;12351;52.284;9.160;2023-02-18T00:00:21;6.17;;;1.27;;
24206;SDS011;12351;52.284;9.160;2023-02-18T00:03:12;5.05;;;0.90;;
24206;SDS011;12351;52.284;9.160;2023-02-18T00:06:00;8.53;;;1.02;;
24206;SDS011;12351;52.284;9.160;2023-02-18T00:08:52;5.75;;;1.07;;
24206;SDS011;12351;52.284;9.160;2023-02-18T00:11:43;7.45;;;1.10;;
24206;SDS011;12351;52.284;9.160;2023-02-18T00:14:32;4.92;;;1.07;;
24206;SDS011;12351;52.284;9.160;2023-02-18T00:17:22;6.90;;;1.10;;
24206;SDS011;12351;52.284;9.160;2023-02-18T00:20:12;5.45;;;1.22;;
24206;SDS011;12351;52.284;9.160;2023-02-18T00:23:02;4.78;;;0.98;;
24206;SDS011;12351;52.284;9.160;2023-02-18T00:28:48;6.53;;;1.30;;
24206;SDS011;12351;52.284;9.160;2023-02-18T00:31:38;6.90;;;1.35;;
24206;SDS011;12351;52.284;9.160;2023-02-18T00:34:31;6.83;;;1.30;;
24206;SDS011;12351;52.284;9.160;2023-02-18T00:37:21;5.60;;;1.30;;
24206;SDS011;12351;52.284;9.160;2023-02-18T00:40:12;4.40;;;1.25;;
24206;SDS011;12351;52.284;9.160;2023-02-18T00:43:04;7.83;;;1.40;;
24206;SDS011;12351;52.284;9.160;2023-02-18T00:45:55;6.15;;;1.32;;
24206;SDS011;12351;52.284;9.160;2023-02-18T00:48:45;11.22;;;1.35;;
24206;SDS011;12351;52.284;9.160;2023-02-18T00:51:33;9.05;;;1.30;;
24206;SDS011;12351;52.284;9.160;2023-02-18T00:54:23;7.05;;;1.35;;
24206;SDS011;12351;52.284;9.160;2023-02-18T00:57:12;6.17;;;1.10;;
24206;SDS011;12351;52.284;9.160;2023-02-18T01:00:02;5.17;;;1.07;;
24206;SDS011;12351;52.284;9.160;2023-02-18T01:02:53;8.45;;;1.37;;
24206;SDS011;12351;52.284;9.160;2023-02-18T01:05:43;9.10;;;1.10;;
24206;SDS011;12351;52.284;9.160;2023-02-18T01:08:34;7.67;;;1.60;;
24206;SDS011;12351;52.284;9.160;2023-02-18T01:11:25;8.10;;;1.50;;
24206;SDS011;12351;52.284;9.160;2023-02-18T01:14:14;10.85;;;1.85;;
24206;SDS011;12351;52.284;9.160;2023-02-18T01:17:04;11.53;;;1.40;;
24206;SDS011;12351;52.284;9.160;2023-02-18T01:19:57;11.25;;;2.00;;
24206;SDS011;12351;52.284;9.160;2023-02-18T01:22:46;10.32;;;1.67;;
24206;SDS011;12351;52.284;9.160;2023-02-18T01:25:40;11.90;;;1.57;;
24206;SDS011;12351;52.284;9.160;2023-02-18T01:28:29;8.28;;;2.00;;
24206;SDS011;12351;52.284;9.160;2023-02-18T01:31:19;10.30;;;2.08;;
24206;SDS011;12351;52.284;9.160;2023-02-18T01:34:09;7.12;;;1.82;;
24206;SDS011;12351;52.284;9.160;2023-02-18T01:36:59;11.60;;;2.35;;
24206;SDS011;12351;52.284;9.160;2023-02-18T01:39:50;12.68;;;2.35;;
24206;SDS011;12351;52.284;9.160;2023-02-18T01:42:41;11.00;;;2.75;;
24206;SDS011;12351;52.284;9.160;2023-02-18T01:48:16;13.60;;;2.70;;
24206;SDS011;12351;52.284;9.160;2023-02-18T01:53:58;11.03;;;3.50;;
24206;SDS011;12351;52.284;9.160;2023-02-18T01:56:50;11.22;;;3.40;;
24206;SDS011;12351;52.284;9.160;2023-02-18T01:59:39;13.18;;;3.87;;
24206;SDS011;12351;52.284;9.160;2023-02-18T02:02:32;12.70;;;4.75;;
24206;SDS011;12351;52.284;9.160;2023-02-18T02:05:21;13.50;;;5.28;;
24206;SDS011;12351;52.284;9.160;2023-02-18T02:08:12;20.45;;;6.20;;
24206;SDS011;12351;52.284;9.160;2023-02-18T02:11:04;15.85;;;6.17;;
24206;SDS011;12351;52.284;9.160;2023-02-18T02:25:21;21.68;;;10.40;;
24206;SDS011;12351;52.284;9.160;2023-02-18T02:42:24;25.37;;;14.30;;
24206;SDS011;12351;52.284;9.160;2023-02-18T02:45:11;26.73;;;14.60;;
24206;SDS011;12351;52.284;9.160;2023-02-18T02:48:03;27.13;;;15.55;;
24206;SDS011;12351;52.284;9.160;2023-02-18T02:50:52;28.75;;;16.17;;
24206;SDS011;12351;52.284;9.160;2023-02-18T02:53:41;31.90;;;16.42;;
24206;SDS011;12351;52.284;9.160;2023-02-18T02:56:31;27.42;;;16.07;;
24206;SDS011;12351;52.284;9.160;2023-02-18T02:59:22;31.42;;;17.05;;
24206;SDS011;12351;52.284;9.160;2023-02-18T03:02:17;29.15;;;16.70;;
24206;SDS011;12351;52.284;9.160;2023-02-18T03:16:33;34.83;;;17.95;;
24206;SDS011;12351;52.284;9.160;2023-02-18T03:22:10;32.38;;;18.05;;
24206;SDS011;12351;52.284;9.160;2023-02-18T03:25:02;31.20;;;18.32;;
24206;SDS011;12351;52.284;9.160;2023-02-18T03:27:54;33.33;;;18.73;;
24206;SDS011;12351;52.284;9.160;2023-02-18T03:30:45;37.65;;;19.95;;
24206;SDS011;12351;52.284;9.160;2023-02-18T03:33:36;33.55;;;20.00;;
24206;SDS011;12351;52.284;9.160;2023-02-18T03:36:25;37.95;;;20.85;;
24206;SDS011;12351;52.284;9.160;2023-02-18T03:39:16;39.42;;;20.37;;
24206;SDS011;12351;52.284;9.160;2023-02-18T03:42:07;38.15;;;20.12;;
24206;SDS011;12351;52.284;9.160;2023-02-18T03:44:56;44.38;;;21.50;;
24206;SDS011;12351;52.284;9.160;2023-02-18T03:47:46;37.67;;;20.97;;
24206;SDS011;12351;52.284;9.160;2023-02-18T03:50:38;38.55;;;20.27;;
24206;SDS011;12351;52.284;9.160;2023-02-18T03:53:28;39.80;;;21.27;;
24206;SDS011;12351;52.284;9.160;2023-02-18T03:56:18;43.78;;;22.22;;
24206;SDS011;12351;52.284;9.160;2023-02-18T03:59:08;38.33;;;22.35;;
24206;SDS011;12351;52.284;9.160;2023-02-18T04:01:59;42.67;;;21.90;;
24206;SDS011;12351;52.284;9.160;2023-02-18T04:04:51;42.30;;;22.22;;
24206;SDS011;12351;52.284;9.160;2023-02-18T04:07:42;43.50;;;22.93;;
24206;SDS011;12351;52.284;9.160;2023-02-18T04:10:32;43.30;;;22.65;;
24206;SDS011;12351;52.284;9.160;2023-02-18T04:13:21;40.12;;;23.52;;
24206;SDS011;12351;52.284;9.160;2023-02-18T04:16:10;42.30;;;23.07;;
24206;SDS011;12351;52.284;9.160;2023-02-18T04:19:01;42.27;;;23.25;;
24206;SDS011;12351;52.284;9.160;2023-02-18T04:21:52;45.12;;;23.50;;
24206;SDS011;12351;52.284;9.160;2023-02-18T04:24:43;44.80;;;24.32;;
24206;SDS011;12351;52.284;9.160;2023-02-18T04:27:33;54.05;;;24.20;;
24206;SDS011;12351;52.284;9.160;2023-02-18T04:30:22;51.28;;;24.20;;
24206;SDS011;12351;52.284;9.160;2023-02-18T04:33:12;43.23;;;24.85;;
24206;SDS011;12351;52.284;9.160;2023-02-18T04:36:03;49.53;;;25.75;;
24206;SDS011;12351;52.284;9.160;2023-02-18T04:38:54;50.58;;;25.02;;
24206;SDS011;12351;52.284;9.160;2023-02-18T04:41:43;56.88;;;25.70;;
24206;SDS011;12351;52.284;9.160;2023-02-18T04:44:34;51.65;;;25.35;;
24206;SDS011;12351;52.284;9.160;2023-02-18T04:47:24;54.70;;;25.80;;
24206;SDS011;12351;52.284;9.160;2023-02-18T04:50:15;49.83;;;24.32;;
24206;SDS011;12351;52.284;9.160;2023-02-18T04:53:07;54.18;;;25.30;;
24206;SDS011;12351;52.284;9.160;2023-02-18T04:55:59;49.15;;;23.92;;
24206;SDS011;12351;52.284;9.160;2023-02-18T04:58:53;40.98;;;21.10;;
24206;SDS011;12351;52.284;9.160;2023-02-18T05:01:44;40.10;;;19.50;;
24206;SDS011;12351;52.284;9.160;2023-02-18T05:04:34;38.60;;;20.10;;
24206;SDS011;12351;52.284;9.160;2023-02-18T05:07:23;37.63;;;19.62;;
24206;SDS011;12351;52.284;9.160;2023-02-18T05:10:15;43.35;;;20.17;;
24206;SDS011;12351;52.284;9.160;2023-02-18T05:13:05;41.73;;;19.12;;
24206;SDS011;12351;52.284;9.160;2023-02-18T05:15:54;39.67;;;18.73;;
24206;SDS011;12351;52.284;9.160;2023-02-18T05:18:45;43.85;;;19.20;;
24206;SDS011;12351;52.284;9.160;2023-02-18T05:21:35;42.13;;;18.77;;
24206;SDS011;12351;52.284;9.160;2023-02-18T05:24:24;41.42;;;18.85;;
24206;SDS011;12351;52.284;9.160;2023-02-18T05:27:16;42.78;;;19.25;;
24206;SDS011;12351;52.284;9.160;2023-02-18T05:30:06;43.90;;;19.60;;
24206;SDS011;12351;52.284;9.160;2023-02-18T05:32:56;43.75;;;19.57;;
24206;SDS011;12351;52.284;9.160;2023-02-18T05:35:48;46.63;;;20.70;;
24206;SDS011;12351;52.284;9.160;2023-02-18T05:38:38;45.33;;;20.37;;
24206;SDS011;12351;52.284;9.160;2023-02-18T05:41:30;41.63;;;20.57;;
24206;SDS011;12351;52.284;9.160;2023-02-18T05:44:20;43.55;;;20.60;;
24206;SDS011;12351;52.284;9.160;2023-02-18T05:47:12;44.17;;;19.83;;
24206;SDS011;12351;52.284;9.160;2023-02-18T05:50:04;47.78;;;20.12;;
24206;SDS011;12351;52.284;9.160;2023-02-18T05:53:00;41.08;;;19.00;;
24206;SDS011;12351;52.284;9.160;2023-02-18T05:55:49;41.83;;;20.00;;
24206;SDS011;12351;52.284;9.160;2023-02-18T05:58:42;37.78;;;18.45;;
24206;SDS011;12351;52.284;9.160;2023-02-18T06:01:31;34.65;;;17.30;;
24206;SDS011;12351;52.284;9.160;2023-02-18T06:04:20;38.73;;;17.05;;
24206;SDS011;12351;52.284;9.160;2023-02-18T06:07:11;35.48;;;16.30;;
24206;SDS011;12351;52.284;9.160;2023-02-18T06:10:03;26.85;;;13.40;;
24206;SDS011;12351;52.284;9.160;2023-02-18T06:12:53;24.65;;;11.80;;
24206;SDS011;12351;52.284;9.160;2023-02-18T06:15:43;25.17;;;10.82;;
24206;SDS011;12351;52.284;9.160;2023-02-18T06:18:32;20.55;;;10.08;;
24206;SDS011;12351;52.284;9.160;2023-02-18T06:21:21;21.23;;;10.32;;
24206;SDS011;12351;52.284;9.160;2023-02-18T06:24:12;21.15;;;10.60;;
24206;SDS011;12351;52.284;9.160;2023-02-18T06:27:02;22.50;;;10.53;;
24206;SDS011;12351;52.284;9.160;2023-02-18T06:29:54;23.42;;;11.00;;
24206;SDS011;12351;52.284;9.160;2023-02-18T06:32:46;21.35;;;10.40;;
24206;SDS011;12351;52.284;9.160;2023-02-18T06:35:36;28.85;;;11.50;;
24206;SDS011;12351;52.284;9.160;2023-02-18T06:38:25;25.00;;;11.35;;
24206;SDS011;12351;52.284;9.160;2023-02-18T06:41:16;23.52;;;10.78;;
24206;SDS011;12351;52.284;9.160;2023-02-18T06:44:05;23.95;;;10.72;;
24206;SDS011;12351;52.284;9.160;2023-02-18T06:46:56;25.75;;;11.05;;
24206;SDS011;12351;52.284;9.160;2023-02-18T06:49:46;25.72;;;11.40;;
24206;SDS011;12351;52.284;9.160;2023-02-18T06:52:35;26.25;;;12.15;;
24206;SDS011;12351;52.284;9.160;2023-02-18T06:55:26;26.62;;;11.78;;
24206;SDS011;12351;52.284;9.160;2023-02-18T06:58:16;25.72;;;11.95;;
24206;SDS011;12351;52.284;9.160;2023-02-18T07:01:09;28.55;;;12.45;;
24206;SDS011;12351;52.284;9.160;2023-02-18T07:03:58;29.27;;;12.05;;
24206;SDS011;12351;52.284;9.160;2023-02-18T07:06:48;30.40;;;13.25;;
24206;SDS011;12351;52.284;9.160;2023-02-18T07:09:39;30.03;;;13.10;;
24206;SDS011;12351;52.284;9.160;2023-02-18T07:12:31;28.32;;;12.78;;
24206;SDS011;12351;52.284;9.160;2023-02-18T07:15:20;28.07;;;12.30;;
24206;SDS011;12351;52.284;9.160;2023-02-18T07:18:13;27.45;;;12.13;;
24206;SDS011;12351;52.284;9.160;2023-02-18T07:21:03;24.12;;;11.25;;
24206;SDS011;12351;52.284;9.160;2023-02-18T07:23:54;28.80;;;11.43;;
24206;SDS011;12351;52.284;9.160;2023-02-18T07:26:44;24.27;;;11.03;;
24206;SDS011;12351;52.284;9.160;2023-02-18T07:29:36;23.70;;;9.90;;
24206;SDS011;12351;52.284;9.160;2023-02-18T07:32:26;23.45;;;9.78;;
24206;SDS011;12351;52.284;9.160;2023-02-18T07:35:16;21.55;;;9.70;;
24206;SDS011;12351;52.284;9.160;2023-02-18T07:38:06;21.05;;;8.90;;
24206;SDS011;12351;52.284;9.160;2023-02-18T07:40:57;20.27;;;9.43;;
24206;SDS011;12351;52.284;9.160;2023-02-18T07:43:50;17.70;;;7.97;;
24206;SDS011;12351;52.284;9.160;2023-02-18T07:46:41;15.93;;;7.22;;
24206;SDS011;12351;52.284;9.160;2023-02-18T07:49:32;15.93;;;7.17;;
24206;SDS011;12351;52.284;9.160;2023-02-18T07:52:23;15.25;;;6.72;;
24206;SDS011;12351;52.284;9.160;2023-02-18T07:55:13;15.70;;;6.42;;
24206;SDS011;12351;52.284;9.160;2023-02-18T07:58:05;10.78;;;5.35;;
24206;SDS011;12351;52.284;9.160;2023-02-18T08:00:56;12.73;;;5.37;;
24206;SDS011;12351;52.284;9.160;2023-02-18T08:03:44;10.63;;;5.33;;
24206;SDS011;12351;52.284;9.160;2023-02-18T08:06:36;9.55;;;4.60;;
24206;SDS011;12351;52.284;9.160;2023-02-18T08:09:27;9.63;;;4.55;;
24206;SDS011;12351;52.284;9.160;2023-02-18T08:12:16;8.95;;;4.50;;
24206;SDS011;12351;52.284;9.160;2023-02-18T08:15:06;6.62;;;4.05;;
24206;SDS011;12351;52.284;9.160;2023-02-18T08:17:58;7.03;;;3.80;;
24206;SDS011;12351;52.284;9.160;2023-02-18T08:20:47;6.42;;;4.15;;
24206;SDS011;12351;52.284;9.160;2023-02-18T08:23:38;7.97;;;4.12;;
24206;SDS011;12351;52.284;9.160;2023-02-18T08:26:29;4.97;;;3.17;;
24206;SDS011;12351;52.284;9.160;2023-02-18T08:29:18;4.75;;;3.22;;
24206;SDS011;12351;52.284;9.160;2023-02-18T08:32:08;6.92;;;3.45;;
24206;SDS011;12351;52.284;9.160;2023-02-18T08:35:00;5.15;;;3.45;;
24206;SDS011;12351;52.284;9.160;2023-02-18T08:37:51;4.80;;;3.05;;
24206;SDS011;12351;52.284;9.160;2023-02-18T08:40:41;5.20;;;3.30;;
24206;SDS011;12351;52.284;9.160;2023-02-18T08:43:31;4.22;;;2.90;;
24206;SDS011;12351;52.284;9.160;2023-02-18T08:46:20;4.30;;;2.83;;
24206;SDS011;12351;52.284;9.160;2023-02-18T08:49:09;4.78;;;2.90;;
24206;SDS011;12351;52.284;9.160;2023-02-18T08:52:00;3.67;;;2.70;;
24206;SDS011;12351;52.284;9.160;2023-02-18T08:54:50;3.37;;;2.65;;
24206;SDS011;12351;52.284;9.160;2023-02-18T08:57:43;2.87;;;2.12;;
24206;SDS011;12351;52.284;9.160;2023-02-18T09:00:34;3.08;;;2.40;;
24206;SDS011;12351;52.284;9.160;2023-02-18T09:03:24;4.42;;;3.00;;
24206;SDS011;12351;52.284;9.160;2023-02-18T09:06:14;2.37;;;2.00;;
24206;SDS011;12351;52.284;9.160;2023-02-18T09:09:06;2.10;;;1.70;;
24206;SDS011;12351;52.284;9.160;2023-02-18T09:11:55;2.05;;;1.60;;
24206;SDS011;12351;52.284;9.160;2023-02-18T09:14:46;1.55;;;1.45;;
24206;SDS011;12351;52.284;9.160;2023-02-18T09:17:37;2.77;;;1.98;;
24206;SDS011;12351;52.284;9.160;2023-02-18T09:20:29;1.77;;;1.67;;
24206;SDS011;12351;52.284;9.160;2023-02-18T09:23:19;3.75;;;1.70;;
24206;SDS011;12351;52.284;9.160;2023-02-18T09:26:11;2.17;;;1.62;;
24206;SDS011;12351;52.284;9.160;2023-02-18T09:29:00;2.55;;;2.02;;
24206;SDS011;12351;52.284;9.160;2023-02-18T09:31:51;2.58;;;1.52;;
24206;SDS011;12351;52.284;9.160;2023-02-18T09:34:41;2.00;;;1.60;;
24206;SDS011;12351;52.284;9.160;2023-02-18T09:37:33;2.50;;;2.00;;
24206;SDS011;12351;52.284;9.160;2023-02-18T09:40:25;2.30;;;1.60;;
24206;SDS011;12351;52.284;9.160;2023-02-18T09:48:53;2.30;;;1.50;;
24206;SDS011;12351;52.284;9.160;2023-02-18T09:51:44;1.67;;;1.55;;
24206;SDS011;12351;52.284;9.160;2023-02-18T09:54:33;2.72;;;1.52;;
24206;SDS011;12351;52.284;9.160;2023-02-18T09:57:25;2.25;;;1.87;;
24206;SDS011;12351;52.284;9.160;2023-02-18T10:00:14;1.70;;;1.37;;
24206;SDS011;12351;52.284;9.160;2023-02-18T10:03:05;3.35;;;1.52;;
24206;SDS011;12351;52.284;9.160;2023-02-18T10:05:57;2.35;;;1.20;;
24206;SDS011;12351;52.284;9.160;2023-02-18T10:08:50;1.77;;;1.27;;
24206;SDS011;12351;52.284;9.160;2023-02-18T10:11:40;1.77;;;1.27;;
24206;SDS011;12351;52.284;9.160;2023-02-18T10:14:32;2.80;;;1.30;;
24206;SDS011;12351;52.284;9.160;2023-02-18T10:17:21;1.47;;;1.10;;
24206;SDS011;12351;52.284;9.160;2023-02-18T10:20:11;2.22;;;1.60;;
24206;SDS011;12351;52.284;9.160;2023-02-18T10:23:04;1.72;;;1.52;;
24206;SDS011;12351;52.284;9.160;2023-02-18T10:25:53;2.45;;;0.88;;
24206;SDS011;12351;52.284;9.160;2023-02-18T10:28:46;3.02;;;1.30;;
24206;SDS011;12351;52.284;9.160;2023-02-18T10:31:35;1.30;;;1.10;;
24206;SDS011;12351;52.284;9.160;2023-02-18T10:37:22;1.20;;;1.00;;
24206;SDS011;12351;52.284;9.160;2023-02-18T10:45:56;1.35;;;1.12;;
24206;SDS011;12351;52.284;9.160;2023-02-18T10:51:33;1.92;;;1.55;;
24206;SDS011;12351;52.284;9.160;2023-02-18T10:54:24;1.65;;;1.10;;
24206;SDS011;12351;52.284;9.160;2023-02-18T10:57:17;1.17;;;1.07;;
24206;SDS011;12351;52.284;9.160;2023-02-18T11:05:47;1.60;;;1.30;;
24206;SDS011;12351;52.284;9.160;2023-02-18T11:08:38;1.90;;;1.47;;
24206;SDS011;12351;52.284;9.160;2023-02-18T11:11:29;1.65;;;1.55;;
24206;SDS011;12351;52.284;9.160;2023-02-18T11:14:33;1.25;;;1.15;;
24206;SDS011;12351;52.284;9.160;2023-02-18T11:17:14;1.35;;;0.93;;
24206;SDS011;12351;52.284;9.160;2023-02-18T11:20:10;2.52;;;1.30;;
24206;SDS011;12351;52.284;9.160;2023-02-18T11:22:56;2.02;;;1.37;;
24206;SDS011;12351;52.284;9.160;2023-02-18T11:31:30;4.47;;;1.60;;
24206;SDS011;12351;52.284;9.160;2023-02-18T11:34:19;1.75;;;1.47;;
24206;SDS011;12351;52.284;9.160;2023-02-18T11:37:09;3.33;;;1.98;;
24206;SDS011;12351;52.284;9.160;2023-02-18T11:39:58;3.20;;;2.00;;
24206;SDS011;12351;52.284;9.160;2023-02-18T11:42:49;2.60;;;2.05;;
24206;SDS011;12351;52.284;9.160;2023-02-18T11:45:38;3.55;;;1.80;;
24206;SDS011;12351;52.284;9.160;2023-02-18T11:48:30;2.65;;;1.80;;
24206;SDS011;12351;52.284;9.160;2023-02-18T11:51:19;2.77;;;1.70;;
24206;SDS011;12351;52.284;9.160;2023-02-18T11:54:20;2.45;;;1.60;;
24206;SDS011;12351;52.284;9.160;2023-02-18T11:57:04;2.08;;;1.40;;
24206;SDS011;12351;52.284;9.160;2023-02-18T11:59:51;2.02;;;1.62;;
24206;SDS011;12351;52.284;9.160;2023-02-18T12:02:43;1.60;;;1.42;;
24206;SDS011;12351;52.284;9.160;2023-02-18T12:05:35;4.90;;;2.10;;
24206;SDS011;12351;52.284;9.160;2023-02-18T12:08:26;3.55;;;1.70;;
24206;SDS011;12351;52.284;9.160;2023-02-18T12:11:19;1.92;;;1.37;;
24206;SDS011;12351;52.284;9.160;2023-02-18T12:14:08;1.45;;;1.22;;
24206;SDS011;12351;52.284;9.160;2023-02-18T12:28:12;1.42;;;1.20;;
24206;SDS011;12351;52.284;9.160;2023-02-18T12:45:12;1.37;;;1.27;;
24206;SDS011;12351;52.284;9.160;2023-02-18T12:50:51;2.05;;;1.55;;
24206;SDS011;12351;52.284;9.160;2023-02-18T12:59:34;2.42;;;1.67;;
24206;SDS011;12351;52.284;9.160;2023-02-18T13:13:48;5.42;;;1.82;;
24206;SDS011;12351;52.284;9.160;2023-02-18T13:16:37;2.90;;;2.37;;
24206;SDS011;12351;52.284;9.160;2023-02-18T13:19:31;4.00;;;2.20;;
24206;SDS011;12351;52.284;9.160;2023-02-18T13:22:21;5.65;;;3.75;;
24206;SDS011;12351;52.284;9.160;2023-02-18T13:25:14;4.00;;;2.40;;
24206;SDS011;12351;52.284;9.160;2023-02-18T13:39:29;8.30;;;3.72;;
24206;SDS011;12351;52.284;9.160;2023-02-18T13:42:23;5.95;;;3.52;;
24206;SDS011;12351;52.284;9.160;2023-02-18T13:48:02;5.37;;;3.30;;
24206;SDS011;12351;52.284;9.160;2023-02-18T13:50:53;5.62;;;3.27;;
24206;SDS011;12351;52.284;9.160;2023-02-18T13:53:48;5.62;;;3.00;;
24206;SDS011;12351;52.284;9.160;2023-02-18T13:56:38;6.12;;;3.30;;
24206;SDS011;12351;52.284;9.160;2023-02-18T14:13:43;8.28;;;3.80;;
24206;SDS011;12351;52.284;9.160;2023-02-18T14:27:52;7.65;;;3.85;;
24206;SDS011;12351;52.284;9.160;2023-02-18T14:30:44;8.98;;;4.70;;
24206;SDS011;12351;52.284;9.160;2023-02-18T14:33:38;6.90;;;4.08;;
24206;SDS011;12351;52.284;9.160;2023-02-18T14:36:31;8.18;;;4.22;;
24206;SDS011;12351;52.284;9.160;2023-02-18T14:50:42;8.08;;;5.28;;
24206;SDS011;12351;52.284;9.160;2023-02-18T14:53:31;9.55;;;6.30;;
24206;SDS011;12351;52.284;9.160;2023-02-18T14:56:22;10.48;;;6.20;;
24206;SDS011;12351;52.284;9.160;2023-02-18T14:59:13;14.85;;;6.58;;
24206;SDS011;12351;52.284;9.160;2023-02-18T15:02:08;11.88;;;6.17;;
24206;SDS011;12351;52.284;9.160;2023-02-18T15:05:06;11.83;;;5.85;;
24206;SDS011;12351;52.284;9.160;2023-02-18T15:13:32;13.83;;;5.97;;
24206;SDS011;12351;52.284;9.160;2023-02-18T15:19:16;13.78;;;5.70;;
24206;SDS011;12351;52.284;9.160;2023-02-18T15:22:10;11.18;;;5.75;;
24206;SDS011;12351;52.284;9.160;2023-02-18T15:24:58;15.08;;;5.50;;
24206;SDS011;12351;52.284;9.160;2023-02-18T15:27:46;11.43;;;5.33;;
24206;SDS011;12351;52.284;9.160;2023-02-18T15:30:38;12.93;;;5.33;;
24206;SDS011;12351;52.284;9.160;2023-02-18T15:33:29;24.60;;;14.30;;
24206;SDS011;12351;52.284;9.160;2023-02-18T15:36:19;17.20;;;5.80;;
24206;SDS011;12351;52.284;9.160;2023-02-18T15:39:10;14.03;;;5.17;;
24206;SDS011;12351;52.284;9.160;2023-02-18T15:42:01;11.97;;;5.20;;
24206;SDS011;12351;52.284;9.160;2023-02-18T15:50:35;9.33;;;5.00;;
24206;SDS011;12351;52.284;9.160;2023-02-18T15:53:24;9.93;;;5.03;;
24206;SDS011;12351;52.284;9.160;2023-02-18T16:01:56;13.68;;;5.25;;
24206;SDS011;12351;52.284;9.160;2023-02-18T16:04:47;15.55;;;5.90;;
24206;SDS011;12351;52.284;9.160;2023-02-18T16:07:47;11.90;;;4.73;;
24206;SDS011;12351;52.284;9.160;2023-02-18T16:13:10;10.20;;;4.70;;
24206;SDS011;12351;52.284;9.160;2023-02-18T16:15:58;10.65;;;4.65;;
24206;SDS011;12351;52.284;9.160;2023-02-18T16:18:48;10.13;;;4.70;;
24206;SDS011;12351;52.284;9.160;2023-02-18T16:21:40;10.38;;;4.25;;
24206;SDS011;12351;52.284;9.160;2023-02-18T16:24:37;10.93;;;4.17;;
24206;SDS011;12351;52.284;9.160;2023-02-18T16:27:19;9.55;;;4.42;;
24206;SDS011;12351;52.284;9.160;2023-02-18T16:33:03;11.85;;;4.37;;
24206;SDS011;12351;52.284;9.160;2023-02-18T16:35:54;11.65;;;4.12;;
24206;SDS011;12351;52.284;9.160;2023-02-18T16:38:47;13.20;;;4.30;;
24206;SDS011;12351;52.284;9.160;2023-02-18T16:41:37;13.83;;;4.30;;
24206;SDS011;12351;52.284;9.160;2023-02-18T16:44:27;12.25;;;4.12;;
24206;SDS011;12351;52.284;9.160;2023-02-18T16:47:19;13.40;;;4.30;;
24206;SDS011;12351;52.284;9.160;2023-02-18T16:50:13;8.95;;;3.77;;
24206;SDS011;12351;52.284;9.160;2023-02-18T16:53:01;10.88;;;4.08;;
24206;SDS011;12351;52.284;9.160;2023-02-18T16:55:50;10.28;;;3.92;;
24206;SDS011;12351;52.284;9.160;2023-02-18T16:58:42;11.85;;;3.92;;
24206;SDS011;12351;52.284;9.160;2023-02-18T17:01:35;8.50;;;3.70;;
24206;SDS011;12351;52.284;9.160;2023-02-18T17:04:27;10.53;;;3.77;;
24206;SDS011;12351;52.284;9.160;2023-02-18T17:07:16;11.85;;;4.05;;
24206;SDS011;12351;52.284;9.160;2023-02-18T17:10:04;8.53;;;3.58;;
24206;SDS011;12351;52.284;9.160;2023-02-18T17:12:55;11.40;;;3.95;;
24206;SDS011;12351;52.284;9.160;2023-02-18T17:15:46;8.28;;;3.92;;
24206;SDS011;12351;52.284;9.160;2023-02-18T17:18:36;8.35;;;3.72;;
24206;SDS011;12351;52.284;9.160;2023-02-18T17:21:27;9.43;;;3.35;;
24206;SDS011;12351;52.284;9.160;2023-02-18T17:24:19;6.72;;;3.20;;
24206;SDS011;12351;52.284;9.160;2023-02-18T17:27:07;8.70;;;3.50;;
24206;SDS011;12351;52.284;9.160;2023-02-18T17:29:57;7.45;;;3.77;;
24206;SDS011;12351;52.284;9.160;2023-02-18T17:32:49;9.58;;;3.65;;
24206;SDS011;12351;52.284;9.160;2023-02-18T17:35:39;10.10;;;3.95;;
24206;SDS011;12351;52.284;9.160;2023-02-18T17:38:26;8.03;;;3.67;;
24206;SDS011;12351;52.284;9.160;2023-02-18T17:41:18;9.63;;;3.75;;
24206;SDS011;12351;52.284;9.160;2023-02-18T17:46:59;11.15;;;4.20;;
24206;SDS011;12351;52.284;9.160;2023-02-18T17:49:50;7.05;;;3.25;;
24206;SDS011;12351;52.284;9.160;2023-02-18T17:52:39;8.78;;;3.20;;
24206;SDS011;12351;52.284;9.160;2023-02-18T17:55:33;8.53;;;2.70;;
24206;SDS011;12351;52.284;9.160;2023-02-18T17:58:22;9.53;;;2.87;;
24206;SDS011;12351;52.284;9.160;2023-02-18T18:01:14;7.75;;;2.52;;
24206;SDS011;12351;52.284;9.160;2023-02-18T18:04:09;8.70;;;3.05;;
24206;SDS011;12351;52.284;9.160;2023-02-18T18:06:54;8.23;;;3.60;;
24206;SDS011;12351;52.284;9.160;2023-02-18T18:09:44;11.03;;;2.90;;
24206;SDS011;12351;52.284;9.160;2023-02-18T18:12:36;11.25;;;4.33;;
24206;SDS011;12351;52.284;9.160;2023-02-18T18:15:28;9.85;;;3.33;;
24206;SDS011;12351;52.284;9.160;2023-02-18T18:18:17;12.33;;;2.90;;
24206;SDS011;12351;52.284;9.160;2023-02-18T18:21:14;10.48;;;3.25;;
24206;SDS011;12351;52.284;9.160;2023-02-18T18:24:04;11.03;;;3.20;;
24206;SDS011;12351;52.284;9.160;2023-02-18T18:26:52;10.30;;;3.00;;
24206;SDS011;12351;52.284;9.160;2023-02-18T18:29:43;10.28;;;2.62;;
24206;SDS011;12351;52.284;9.160;2023-02-18T18:32:34;7.70;;;2.40;;
24206;SDS011;12351;52.284;9.160;2023-02-18T18:38:16;13.03;;;2.33;;
24206;SDS011;12351;52.284;9.160;2023-02-18T18:41:09;7.37;;;2.12;;
24206;SDS011;12351;52.284;9.160;2023-02-18T18:43:58;9.63;;;2.30;;
24206;SDS011;12351;52.284;9.160;2023-02-18T18:46:47;8.05;;;2.40;;
24206;SDS011;12351;52.284;9.160;2023-02-18T18:49:39;6.58;;;2.30;;
24206;SDS011;12351;52.284;9.160;2023-02-18T18:52:27;14.35;;;2.90;;
24206;SDS011;12351;52.284;9.160;2023-02-18T18:58:07;7.35;;;2.47;;
24206;SDS011;12351;52.284;9.160;2023-02-18T19:00:59;8.15;;;2.20;;
24206;SDS011;12351;52.284;9.160;2023-02-18T19:03:48;7.03;;;2.47;;
24206;SDS011;12351;52.284;9.160;2023-02-18T19:06:43;7.62;;;2.40;;
24206;SDS011;12351;52.284;9.160;2023-02-18T19:09:32;6.40;;;2.12;;
24206;SDS011;12351;52.284;9.160;2023-02-18T19:12:21;5.47;;;2.12;;
24206;SDS011;12351;52.284;9.160;2023-02-18T19:15:12;8.13;;;2.60;;
24206;SDS011;12351;52.284;9.160;2023-02-18T19:18:04;7.45;;;2.55;;
24206;SDS011;12351;52.284;9.160;2023-02-18T19:20:54;9.18;;;2.80;;
24206;SDS011;12351;52.284;9.160;2023-02-18T19:23:47;10.30;;;2.42;;
24206;SDS011;12351;52.284;9.160;2023-02-18T19:26:39;7.80;;;2.27;;
24206;SDS011;12351;52.284;9.160;2023-02-18T19:29:28;13.00;;;2.35;;
24206;SDS011;12351;52.284;9.160;2023-02-18T19:32:20;14.30;;;2.33;;
24206;SDS011;12351;52.284;9.160;2023-02-18T19:35:12;10.13;;;2.72;;
24206;SDS011;12351;52.284;9.160;2023-02-18T19:38:02;9.33;;;2.65;;
24206;SDS011;12351;52.284;9.160;2023-02-18T19:40:51;7.50;;;2.45;;
24206;SDS011;12351;52.284;9.160;2023-02-18T19:43:42;5.80;;;2.50;;
24206;SDS011;12351;52.284;9.160;2023-02-18T19:46:34;8.63;;;2.15;;
24206;SDS011;12351;52.284;9.160;2023-02-18T19:49:25;9.00;;;2.77;;
24206;SDS011;12351;52.284;9.160;2023-02-18T19:52:17;9.83;;;2.50;;
24206;SDS011;12351;52.284;9.160;2023-02-18T19:55:08;7.45;;;1.92;;
24206;SDS011;12351;52.284;9.160;2023-02-18T19:58:00;6.53;;;1.95;;
24206;SDS011;12351;52.284;9.160;2023-02-18T20:00:48;9.60;;;2.25;;
24206;SDS011;12351;52.284;9.160;2023-02-18T20:03:36;15.15;;;2.45;;
24206;SDS011;12351;52.284;9.160;2023-02-18T20:06:26;8.23;;;2.37;;
24206;SDS011;12351;52.284;9.160;2023-02-18T20:09:14;10.30;;;2.77;;
24206;SDS011;12351;52.284;9.160;2023-02-18T20:12:04;11.68;;;2.77;;
24206;SDS011;12351;52.284;9.160;2023-02-18T20:14:57;10.28;;;2.33;;
24206;SDS011;12351;52.284;9.160;2023-02-18T20:17:47;8.70;;;2.22;;
24206;SDS011;12351;52.284;9.160;2023-02-18T20:20:39;8.85;;;2.60;;
24206;SDS011;12351;52.284;9.160;2023-02-18T20:23:28;13.20;;;2.35;;